sensor_id;sensor_type;location;lat;lon;timestamp;temperature;humidity
55091;DHT22;40985;53.180;5.800;2022-12-29T00:01:13;8.90;99.90
55091;DHT22;40985;53.180;5.800;2022-12-29T00:03:38;8.90;99.90
55091;DHT22;40985;53.180;5.800;2022-12-29T00:06:04;8.90;99.90
55091;DHT22;40985;53.180;5.800;2022-12-29T00:08:30;8.90;99.90
55091;DHT22;40985;53.180;5.800;2022-12-29T00:11:26;8.90;99.90
55091;DHT22;40985;53.180;5.800;2022-12-29T00:13:53;9.00;99.90
55091;DHT22;40985;53.180;5.800;2022-12-29T00:16:39;9.00;99.90
55091;DHT22;40985;53.180;5.800;2022-12-29T00:19:05;9.00;99.90
55091;DHT22;40985;53.180;5.800;2022-12-29T00:21:31;9.00;99.90
55091;DHT22;40985;53.180;5.800;2022-12-29T00:24:18;9.00;99.90
55091;DHT22;40985;53.180;5.800;2022-12-29T00:27:10;9.00;99.90
55091;DHT22;40985;53.180;5.800;2022-12-29T00:29:55;9.10;99.90
55091;DHT22;40985;53.180;5.800;2022-12-29T00:32:39;9.10;99.90
55091;DHT22;40985;53.180;5.800;2022-12-29T00:35:33;9.10;99.90
55091;DHT22;40985;53.180;5.800;2022-12-29T00:38:04;9.10;99.90
55091;DHT22;40985;53.180;5.800;2022-12-29T00:40:49;9.20;99.90
55091;DHT22;40985;53.180;5.800;2022-12-29T00:43:33;9.20;99.90
55091;DHT22;40985;53.180;5.800;2022-12-29T00:46:18;9.20;99.90
55091;DHT22;40985;53.180;5.800;2022-12-29T00:48:44;9.20;99.90
55091;DHT22;40985;53.180;5.800;2022-12-29T00:51:28;9.20;99.90
55091;DHT22;40985;53.180;5.800;2022-12-29T00:53:54;9.20;99.90
55091;DHT22;40985;53.180;5.800;2022-12-29T00:56:20;9.30;99.90
55091;DHT22;40985;53.180;5.800;2022-12-29T00:58:45;9.20;99.90
55091;DHT22;40985;53.180;5.800;2022-12-29T01:01:11;9.20;99.90
55091;DHT22;40985;53.180;5.800;2022-12-29T01:03:37;9.20;99.90
55091;DHT22;40985;53.180;5.800;2022-12-29T01:06:06;9.20;99.90
55091;DHT22;40985;53.180;5.800;2022-12-29T01:08:32;9.20;99.90
55091;DHT22;40985;53.180;5.800;2022-12-29T01:11:03;9.20;99.90
55091;DHT22;40985;53.180;5.800;2022-12-29T01:13:29;9.10;99.90
55091;DHT22;40985;53.180;5.800;2022-12-29T01:15:55;9.20;99.90
55091;DHT22;40985;53.180;5.800;2022-12-29T01:18:22;9.20;99.90
55091;DHT22;40985;53.180;5.800;2022-12-29T01:20:48;9.20;99.90
55091;DHT22;40985;53.180;5.800;2022-12-29T01:23:13;9.20;99.90
55091;DHT22;40985;53.180;5.800;2022-12-29T01:25:39;9.20;99.90
55091;DHT22;40985;53.180;5.800;2022-12-29T01:28:05;9.20;99.90
55091;DHT22;40985;53.180;5.800;2022-12-29T01:30:34;9.20;99.90
55091;DHT22;40985;53.180;5.800;2022-12-29T01:33:00;9.20;99.90
55091;DHT22;40985;53.180;5.800;2022-12-29T01:35:26;9.20;99.90
55091;DHT22;40985;53.180;5.800;2022-12-29T01:37:52;9.20;99.90
55091;DHT22;40985;53.180;5.800;2022-12-29T01:40:18;9.10;99.90
55091;DHT22;40985;53.180;5.800;2022-12-29T01:42:43;9.20;99.90
55091;DHT22;40985;53.180;5.800;2022-12-29T01:45:14;9.20;99.90
55091;DHT22;40985;53.180;5.800;2022-12-29T01:47:47;9.10;99.90
55091;DHT22;40985;53.180;5.800;2022-12-29T01:50:15;9.10;99.90
55091;DHT22;40985;53.180;5.800;2022-12-29T01:52:51;9.10;99.90
55091;DHT22;40985;53.180;5.800;2022-12-29T01:55:20;9.10;99.90
55091;DHT22;40985;53.180;5.800;2022-12-29T01:57:49;9.10;99.90
55091;DHT22;40985;53.180;5.800;2022-12-29T02:00:17;9.10;99.90
55091;DHT22;40985;53.180;5.800;2022-12-29T02:02:46;9.10;99.90
55091;DHT22;40985;53.180;5.800;2022-12-29T02:07:47;9.00;99.90
55091;DHT22;40985;53.180;5.800;2022-12-29T02:10:14;9.10;99.90
55091;DHT22;40985;53.180;5.800;2022-12-29T02:12:40;9.00;99.90
55091;DHT22;40985;53.180;5.800;2022-12-29T02:15:06;9.00;99.90
55091;DHT22;40985;53.180;5.800;2022-12-29T02:18:09;9.00;99.90
55091;DHT22;40985;53.180;5.800;2022-12-29T02:21:01;9.00;99.90
55091;DHT22;40985;53.180;5.800;2022-12-29T02:26:16;9.00;99.90
55091;DHT22;40985;53.180;5.800;2022-12-29T02:34:27;9.00;99.90
55091;DHT22;40985;53.180;5.800;2022-12-29T02:37:27;9.00;99.90
55091;DHT22;40985;53.180;5.800;2022-12-29T02:40:06;9.00;99.90
55091;DHT22;40985;53.180;5.800;2022-12-29T02:43:21;9.00;99.90
55091;DHT22;40985;53.180;5.800;2022-12-29T02:45:58;9.00;99.90
55091;DHT22;40985;53.180;5.800;2022-12-29T02:48:43;9.00;99.90
55091;DHT22;40985;53.180;5.800;2022-12-29T02:51:19;8.90;99.90
55091;DHT22;40985;53.180;5.800;2022-12-29T02:53:46;8.80;99.90
55091;DHT22;40985;53.180;5.800;2022-12-29T02:56:30;8.80;99.90
55091;DHT22;40985;53.180;5.800;2022-12-29T02:58:56;8.70;99.90
55091;DHT22;40985;53.180;5.800;2022-12-29T03:07:26;8.50;99.90
55091;DHT22;40985;53.180;5.800;2022-12-29T03:12:30;8.40;99.90
55091;DHT22;40985;53.180;5.800;2022-12-29T03:15:27;8.50;99.90
55091;DHT22;40985;53.180;5.800;2022-12-29T03:18:21;8.40;99.90
55091;DHT22;40985;53.180;5.800;2022-12-29T03:21:00;8.40;99.90
55091;DHT22;40985;53.180;5.800;2022-12-29T03:23:28;8.30;99.90
55091;DHT22;40985;53.180;5.800;2022-12-29T03:25:56;8.30;99.90
55091;DHT22;40985;53.180;5.800;2022-12-29T03:28:28;8.40;99.90
55091;DHT22;40985;53.180;5.800;2022-12-29T03:30:55;8.40;99.90
55091;DHT22;40985;53.180;5.800;2022-12-29T03:33:24;8.50;99.90
55091;DHT22;40985;53.180;5.800;2022-12-29T03:35:53;8.50;99.90
55091;DHT22;40985;53.180;5.800;2022-12-29T03:38:43;8.50;99.90
55091;DHT22;40985;53.180;5.800;2022-12-29T03:41:19;8.40;99.90
55091;DHT22;40985;53.180;5.800;2022-12-29T03:43:46;8.40;99.90
55091;DHT22;40985;53.180;5.800;2022-12-29T03:46:12;8.40;99.90
55091;DHT22;40985;53.180;5.800;2022-12-29T03:48:37;8.40;99.90
55091;DHT22;40985;53.180;5.800;2022-12-29T03:51:03;8.30;99.90
55091;DHT22;40985;53.180;5.800;2022-12-29T03:53:29;8.30;99.90
55091;DHT22;40985;53.180;5.800;2022-12-29T03:55:54;8.30;99.90
55091;DHT22;40985;53.180;5.800;2022-12-29T03:58:20;8.20;99.90
55091;DHT22;40985;53.180;5.800;2022-12-29T04:00:46;8.20;99.90
55091;DHT22;40985;53.180;5.800;2022-12-29T04:03:11;8.10;99.90
55091;DHT22;40985;53.180;5.800;2022-12-29T04:05:37;8.10;99.90
55091;DHT22;40985;53.180;5.800;2022-12-29T04:08:02;8.10;99.90
55091;DHT22;40985;53.180;5.800;2022-12-29T04:10:28;8.10;99.90
55091;DHT22;40985;53.180;5.800;2022-12-29T04:12:54;8.10;99.90
55091;DHT22;40985;53.180;5.800;2022-12-29T04:15:19;8.20;99.90
55091;DHT22;40985;53.180;5.800;2022-12-29T04:17:45;8.20;99.90
55091;DHT22;40985;53.180;5.800;2022-12-29T04:20:11;8.10;99.90
55091;DHT22;40985;53.180;5.800;2022-12-29T04:23:03;8.00;99.90
55091;DHT22;40985;53.180;5.800;2022-12-29T04:25:30;8.10;99.90
55091;DHT22;40985;53.180;5.800;2022-12-29T04:27:56;8.10;99.90
55091;DHT22;40985;53.180;5.800;2022-12-29T04:30:22;8.00;99.90
55091;DHT22;40985;53.180;5.800;2022-12-29T04:32:48;8.00;99.90
55091;DHT22;40985;53.180;5.800;2022-12-29T04:35:13;8.00;99.90
55091;DHT22;40985;53.180;5.800;2022-12-29T04:37:39;8.00;99.90
55091;DHT22;40985;53.180;5.800;2022-12-29T04:40:05;8.00;99.90
55091;DHT22;40985;53.180;5.800;2022-12-29T04:42:31;8.00;99.90
55091;DHT22;40985;53.180;5.800;2022-12-29T04:44:56;8.00;99.90
55091;DHT22;40985;53.180;5.800;2022-12-29T04:47:22;8.00;99.90
55091;DHT22;40985;53.180;5.800;2022-12-29T04:49:48;8.00;99.90
55091;DHT22;40985;53.180;5.800;2022-12-29T04:52:14;8.10;99.90
55091;DHT22;40985;53.180;5.800;2022-12-29T04:54:39;8.10;99.90
55091;DHT22;40985;53.180;5.800;2022-12-29T04:57:05;8.10;99.90
55091;DHT22;40985;53.180;5.800;2022-12-29T04:59:31;8.10;99.90
55091;DHT22;40985;53.180;5.800;2022-12-29T05:01:56;8.20;99.90
55091;DHT22;40985;53.180;5.800;2022-12-29T05:04:22;8.20;99.90
55091;DHT22;40985;53.180;5.800;2022-12-29T05:06:48;8.20;99.90
55091;DHT22;40985;53.180;5.800;2022-12-29T05:09:13;8.20;99.90
55091;DHT22;40985;53.180;5.800;2022-12-29T05:11:39;8.20;99.90
55091;DHT22;40985;53.180;5.800;2022-12-29T05:14:05;8.20;99.90
55091;DHT22;40985;53.180;5.800;2022-12-29T05:16:30;8.20;99.90
55091;DHT22;40985;53.180;5.800;2022-12-29T05:18:56;8.40;99.90
55091;DHT22;40985;53.180;5.800;2022-12-29T05:21:22;8.30;99.90
55091;DHT22;40985;53.180;5.800;2022-12-29T05:23:47;8.30;99.90
55091;DHT22;40985;53.180;5.800;2022-12-29T05:26:13;8.30;99.90
55091;DHT22;40985;53.180;5.800;2022-12-29T05:28:39;8.30;99.90
55091;DHT22;40985;53.180;5.800;2022-12-29T05:31:04;8.30;99.90
55091;DHT22;40985;53.180;5.800;2022-12-29T05:33:30;8.30;99.90
55091;DHT22;40985;53.180;5.800;2022-12-29T05:35:56;8.30;99.90
55091;DHT22;40985;53.180;5.800;2022-12-29T05:38:21;8.30;99.90
55091;DHT22;40985;53.180;5.800;2022-12-29T05:40:47;8.30;99.90
55091;DHT22;40985;53.180;5.800;2022-12-29T05:43:13;8.30;99.90
55091;DHT22;40985;53.180;5.800;2022-12-29T05:45:38;8.30;99.90
55091;DHT22;40985;53.180;5.800;2022-12-29T05:48:04;8.30;99.90
55091;DHT22;40985;53.180;5.800;2022-12-29T05:50:30;8.30;99.90
55091;DHT22;40985;53.180;5.800;2022-12-29T05:52:55;8.30;99.90
55091;DHT22;40985;53.180;5.800;2022-12-29T05:55:21;8.30;99.90
55091;DHT22;40985;53.180;5.800;2022-12-29T05:57:47;8.30;99.90
55091;DHT22;40985;53.180;5.800;2022-12-29T06:00:13;8.30;99.90
55091;DHT22;40985;53.180;5.800;2022-12-29T06:02:39;8.30;99.90
55091;DHT22;40985;53.180;5.800;2022-12-29T06:05:05;8.20;99.90
55091;DHT22;40985;53.180;5.800;2022-12-29T06:07:31;8.20;99.90
55091;DHT22;40985;53.180;5.800;2022-12-29T06:09:56;8.20;99.90
55091;DHT22;40985;53.180;5.800;2022-12-29T06:12:22;8.20;99.90
55091;DHT22;40985;53.180;5.800;2022-12-29T06:14:48;8.10;99.90
55091;DHT22;40985;53.180;5.800;2022-12-29T06:17:13;8.10;99.90
55091;DHT22;40985;53.180;5.800;2022-12-29T06:19:39;8.10;99.90
55091;DHT22;40985;53.180;5.800;2022-12-29T06:22:05;8.20;99.90
55091;DHT22;40985;53.180;5.800;2022-12-29T06:24:32;8.20;99.90
55091;DHT22;40985;53.180;5.800;2022-12-29T06:26:58;8.10;99.90
55091;DHT22;40985;53.180;5.800;2022-12-29T06:29:23;8.10;99.90
55091;DHT22;40985;53.180;5.800;2022-12-29T06:31:49;8.10;99.90
55091;DHT22;40985;53.180;5.800;2022-12-29T06:34:16;8.10;99.90
55091;DHT22;40985;53.180;5.800;2022-12-29T06:36:42;8.10;99.90
55091;DHT22;40985;53.180;5.800;2022-12-29T06:39:07;8.10;99.90
55091;DHT22;40985;53.180;5.800;2022-12-29T06:41:33;8.10;99.90
55091;DHT22;40985;53.180;5.800;2022-12-29T06:43:59;8.10;99.90
55091;DHT22;40985;53.180;5.800;2022-12-29T06:46:24;8.10;99.90
55091;DHT22;40985;53.180;5.800;2022-12-29T06:48:50;8.00;99.90
55091;DHT22;40985;53.180;5.800;2022-12-29T06:51:15;8.00;99.90
55091;DHT22;40985;53.180;5.800;2022-12-29T06:53:41;8.00;99.90
55091;DHT22;40985;53.180;5.800;2022-12-29T06:56:07;8.10;99.90
55091;DHT22;40985;53.180;5.800;2022-12-29T06:58:33;8.10;99.90
55091;DHT22;40985;53.180;5.800;2022-12-29T07:00:58;8.20;99.90
55091;DHT22;40985;53.180;5.800;2022-12-29T07:03:24;8.30;99.90
55091;DHT22;40985;53.180;5.800;2022-12-29T07:05:50;8.20;99.90
55091;DHT22;40985;53.180;5.800;2022-12-29T07:08:16;8.30;99.90
55091;DHT22;40985;53.180;5.800;2022-12-29T07:10:42;8.30;99.90
55091;DHT22;40985;53.180;5.800;2022-12-29T07:13:07;8.30;99.90
55091;DHT22;40985;53.180;5.800;2022-12-29T07:15:34;8.30;99.90
55091;DHT22;40985;53.180;5.800;2022-12-29T07:17:59;8.30;99.90
55091;DHT22;40985;53.180;5.800;2022-12-29T07:20:25;8.30;99.90
55091;DHT22;40985;53.180;5.800;2022-12-29T07:22:51;8.30;99.90
55091;DHT22;40985;53.180;5.800;2022-12-29T07:25:17;8.30;99.90
55091;DHT22;40985;53.180;5.800;2022-12-29T07:27:42;8.30;99.90
55091;DHT22;40985;53.180;5.800;2022-12-29T07:30:09;8.30;99.90
55091;DHT22;40985;53.180;5.800;2022-12-29T07:32:35;8.40;99.90
55091;DHT22;40985;53.180;5.800;2022-12-29T07:35:01;8.40;99.90
55091;DHT22;40985;53.180;5.800;2022-12-29T07:37:26;8.40;99.90
55091;DHT22;40985;53.180;5.800;2022-12-29T07:39:52;8.40;99.90
55091;DHT22;40985;53.180;5.800;2022-12-29T07:42:18;8.40;99.90
55091;DHT22;40985;53.180;5.800;2022-12-29T07:44:43;8.40;99.90
55091;DHT22;40985;53.180;5.800;2022-12-29T07:47:09;8.40;99.90
55091;DHT22;40985;53.180;5.800;2022-12-29T07:49:35;8.40;99.90
55091;DHT22;40985;53.180;5.800;2022-12-29T07:52:00;8.40;99.90
55091;DHT22;40985;53.180;5.800;2022-12-29T07:54:26;8.50;99.90
55091;DHT22;40985;53.180;5.800;2022-12-29T07:56:52;8.40;99.90
55091;DHT22;40985;53.180;5.800;2022-12-29T07:59:17;8.40;99.90
55091;DHT22;40985;53.180;5.800;2022-12-29T08:01:43;8.40;99.90
55091;DHT22;40985;53.180;5.800;2022-12-29T08:04:09;8.40;99.90
55091;DHT22;40985;53.180;5.800;2022-12-29T08:06:35;8.50;99.90
55091;DHT22;40985;53.180;5.800;2022-12-29T08:09:01;8.50;99.90
55091;DHT22;40985;53.180;5.800;2022-12-29T08:11:27;8.40;99.90
55091;DHT22;40985;53.180;5.800;2022-12-29T08:13:53;8.50;99.90
55091;DHT22;40985;53.180;5.800;2022-12-29T08:16:18;8.40;99.90
55091;DHT22;40985;53.180;5.800;2022-12-29T08:18:44;8.40;99.90
55091;DHT22;40985;53.180;5.800;2022-12-29T08:21:10;8.40;99.90
55091;DHT22;40985;53.180;5.800;2022-12-29T08:23:35;8.50;99.90
55091;DHT22;40985;53.180;5.800;2022-12-29T08:26:04;8.40;99.90
55091;DHT22;40985;53.180;5.800;2022-12-29T08:28:31;8.50;99.90
55091;DHT22;40985;53.180;5.800;2022-12-29T08:30:58;8.40;99.90
55091;DHT22;40985;53.180;5.800;2022-12-29T08:33:25;8.50;99.90
55091;DHT22;40985;53.180;5.800;2022-12-29T08:35:51;8.50;99.90
55091;DHT22;40985;53.180;5.800;2022-12-29T08:38:16;8.50;99.90
55091;DHT22;40985;53.180;5.800;2022-12-29T08:40:43;8.60;99.90
55091;DHT22;40985;53.180;5.800;2022-12-29T08:43:09;8.60;99.90
55091;DHT22;40985;53.180;5.800;2022-12-29T08:45:35;8.60;99.90
55091;DHT22;40985;53.180;5.800;2022-12-29T08:48:01;8.60;99.90
55091;DHT22;40985;53.180;5.800;2022-12-29T08:50:26;8.60;99.90
55091;DHT22;40985;53.180;5.800;2022-12-29T08:52:52;8.60;99.90
55091;DHT22;40985;53.180;5.800;2022-12-29T08:55:18;8.60;99.90
55091;DHT22;40985;53.180;5.800;2022-12-29T08:57:43;8.60;99.90
55091;DHT22;40985;53.180;5.800;2022-12-29T09:00:10;8.50;99.90
55091;DHT22;40985;53.180;5.800;2022-12-29T09:02:36;8.50;99.90
55091;DHT22;40985;53.180;5.800;2022-12-29T09:05:02;8.50;99.90
55091;DHT22;40985;53.180;5.800;2022-12-29T09:07:28;8.50;99.90
55091;DHT22;40985;53.180;5.800;2022-12-29T09:09:53;8.50;99.90
55091;DHT22;40985;53.180;5.800;2022-12-29T09:12:19;8.50;99.90
55091;DHT22;40985;53.180;5.800;2022-12-29T09:14:46;8.50;99.90
55091;DHT22;40985;53.180;5.800;2022-12-29T09:17:12;8.50;99.90
55091;DHT22;40985;53.180;5.800;2022-12-29T09:19:56;8.50;99.90
55091;DHT22;40985;53.180;5.800;2022-12-29T09:22:22;8.50;99.90
55091;DHT22;40985;53.180;5.800;2022-12-29T09:24:47;8.40;99.90
55091;DHT22;40985;53.180;5.800;2022-12-29T09:27:13;8.40;99.90
55091;DHT22;40985;53.180;5.800;2022-12-29T09:29:39;8.40;99.90
55091;DHT22;40985;53.180;5.800;2022-12-29T09:32:04;8.30;99.90
55091;DHT22;40985;53.180;5.800;2022-12-29T09:34:30;8.30;99.90
55091;DHT22;40985;53.180;5.800;2022-12-29T09:36:56;8.30;99.90
55091;DHT22;40985;53.180;5.800;2022-12-29T09:39:22;8.20;99.90
55091;DHT22;40985;53.180;5.800;2022-12-29T09:41:57;8.20;99.90
55091;DHT22;40985;53.180;5.800;2022-12-29T09:44:49;8.10;99.90
55091;DHT22;40985;53.180;5.800;2022-12-29T09:47:18;8.00;99.90
55091;DHT22;40985;53.180;5.800;2022-12-29T09:49:56;8.00;99.90
55091;DHT22;40985;53.180;5.800;2022-12-29T09:52:32;7.90;99.90
55091;DHT22;40985;53.180;5.800;2022-12-29T09:55:15;8.00;99.90
55091;DHT22;40985;53.180;5.800;2022-12-29T09:57:59;8.00;99.90
55091;DHT22;40985;53.180;5.800;2022-12-29T10:00:48;8.00;99.90
55091;DHT22;40985;53.180;5.800;2022-12-29T10:03:17;8.10;99.90
55091;DHT22;40985;53.180;5.800;2022-12-29T10:08:37;8.20;99.90
55091;DHT22;40985;53.180;5.800;2022-12-29T10:11:27;8.10;99.90
55091;DHT22;40985;53.180;5.800;2022-12-29T10:14:18;8.20;99.90
55091;DHT22;40985;53.180;5.800;2022-12-29T10:17:22;8.20;99.90
55091;DHT22;40985;53.180;5.800;2022-12-29T10:19:58;8.20;99.90
55091;DHT22;40985;53.180;5.800;2022-12-29T10:25:32;8.20;99.90
55091;DHT22;40985;53.180;5.800;2022-12-29T10:28:05;8.30;99.90
55091;DHT22;40985;53.180;5.800;2022-12-29T10:30:35;8.30;99.90
55091;DHT22;40985;53.180;5.800;2022-12-29T10:33:07;8.30;99.90
55091;DHT22;40985;53.180;5.800;2022-12-29T10:35:36;8.40;99.90
55091;DHT22;40985;53.180;5.800;2022-12-29T10:43:46;8.50;99.90
55091;DHT22;40985;53.180;5.800;2022-12-29T10:46:18;8.50;99.90
55091;DHT22;40985;53.180;5.800;2022-12-29T10:48:44;8.50;99.90
55091;DHT22;40985;53.180;5.800;2022-12-29T10:51:19;8.40;99.90
55091;DHT22;40985;53.180;5.800;2022-12-29T10:53:50;8.50;99.90
55091;DHT22;40985;53.180;5.800;2022-12-29T10:56:39;8.50;99.90
55091;DHT22;40985;53.180;5.800;2022-12-29T10:59:29;8.50;99.90
55091;DHT22;40985;53.180;5.800;2022-12-29T11:05:00;8.50;99.90
55091;DHT22;40985;53.180;5.800;2022-12-29T11:07:30;8.50;99.90
55091;DHT22;40985;53.180;5.800;2022-12-29T11:10:20;8.50;99.90
55091;DHT22;40985;53.180;5.800;2022-12-29T11:13:00;8.60;99.90
55091;DHT22;40985;53.180;5.800;2022-12-29T11:15:27;8.70;99.90
55091;DHT22;40985;53.180;5.800;2022-12-29T11:17:57;8.60;99.90
55091;DHT22;40985;53.180;5.800;2022-12-29T11:20:38;8.60;99.90
55091;DHT22;40985;53.180;5.800;2022-12-29T11:23:20;8.50;99.90
55091;DHT22;40985;53.180;5.800;2022-12-29T11:28:38;8.50;99.90
55091;DHT22;40985;53.180;5.800;2022-12-29T11:31:06;8.40;99.90
55091;DHT22;40985;53.180;5.800;2022-12-29T11:33:33;8.40;99.90
55091;DHT22;40985;53.180;5.800;2022-12-29T11:38:39;8.40;99.90
55091;DHT22;40985;53.180;5.800;2022-12-29T11:41:06;8.40;99.90
55091;DHT22;40985;53.180;5.800;2022-12-29T11:43:41;8.30;99.90
55091;DHT22;40985;53.180;5.800;2022-12-29T11:46:16;8.30;99.90
55091;DHT22;40985;53.180;5.800;2022-12-29T11:48:43;8.40;99.90
55091;DHT22;40985;53.180;5.800;2022-12-29T11:51:10;8.40;99.90
55091;DHT22;40985;53.180;5.800;2022-12-29T11:53:46;8.40;99.90
55091;DHT22;40985;53.180;5.800;2022-12-29T11:56:15;8.50;99.90
55091;DHT22;40985;53.180;5.800;2022-12-29T11:58:41;8.50;99.90
55091;DHT22;40985;53.180;5.800;2022-12-29T12:01:17;8.50;99.90
55091;DHT22;40985;53.180;5.800;2022-12-29T12:06:28;8.60;99.90
55091;DHT22;40985;53.180;5.800;2022-12-29T12:09:06;8.60;99.90
55091;DHT22;40985;53.180;5.800;2022-12-29T12:11:38;8.60;99.90
55091;DHT22;40985;53.180;5.800;2022-12-29T12:14:27;8.60;99.90
55091;DHT22;40985;53.180;5.800;2022-12-29T12:17:10;8.60;99.90
55091;DHT22;40985;53.180;5.800;2022-12-29T12:25:17;8.70;99.90
55091;DHT22;40985;53.180;5.800;2022-12-29T12:28:05;8.70;99.90
55091;DHT22;40985;53.180;5.800;2022-12-29T12:30:43;8.70;99.90
55091;DHT22;40985;53.180;5.800;2022-12-29T12:33:24;8.70;99.90
55091;DHT22;40985;53.180;5.800;2022-12-29T12:38:58;8.70;99.90
55091;DHT22;40985;53.180;5.800;2022-12-29T12:49:51;8.70;99.90
55091;DHT22;40985;53.180;5.800;2022-12-29T13:01:04;8.60;99.90
55091;DHT22;40985;53.180;5.800;2022-12-29T13:16:39;8.40;99.90
55091;DHT22;40985;53.180;5.800;2022-12-29T13:19:33;8.40;99.90
55091;DHT22;40985;53.180;5.800;2022-12-29T13:30:38;8.20;99.90
55091;DHT22;40985;53.180;5.800;2022-12-29T13:36:16;8.30;99.90
55091;DHT22;40985;53.180;5.800;2022-12-29T13:38:47;8.30;99.90
55091;DHT22;40985;53.180;5.800;2022-12-29T13:41:50;8.30;99.90
55091;DHT22;40985;53.180;5.800;2022-12-29T13:44:15;8.30;99.90
55091;DHT22;40985;53.180;5.800;2022-12-29T13:46:46;8.30;99.90
55091;DHT22;40985;53.180;5.800;2022-12-29T13:49:19;8.40;99.90
55091;DHT22;40985;53.180;5.800;2022-12-29T13:51:54;8.40;99.90
55091;DHT22;40985;53.180;5.800;2022-12-29T13:54:37;8.40;99.90
55091;DHT22;40985;53.180;5.800;2022-12-29T14:07:58;8.10;99.90
55091;DHT22;40985;53.180;5.800;2022-12-29T14:10:45;8.00;99.90
55091;DHT22;40985;53.180;5.800;2022-12-29T14:13:13;8.00;99.90
55091;DHT22;40985;53.180;5.800;2022-12-29T14:15:41;7.90;99.90
55091;DHT22;40985;53.180;5.800;2022-12-29T14:18:17;7.90;99.90
55091;DHT22;40985;53.180;5.800;2022-12-29T14:20:51;7.80;99.90
55091;DHT22;40985;53.180;5.800;2022-12-29T14:33:40;7.70;99.90
55091;DHT22;40985;53.180;5.800;2022-12-29T14:36:24;7.70;99.90
55091;DHT22;40985;53.180;5.800;2022-12-29T14:38:50;7.70;99.90
55091;DHT22;40985;53.180;5.800;2022-12-29T14:41:23;7.60;99.90
55091;DHT22;40985;53.180;5.800;2022-12-29T14:44:17;7.60;99.90
55091;DHT22;40985;53.180;5.800;2022-12-29T14:49:29;7.60;99.90
55091;DHT22;40985;53.180;5.800;2022-12-29T14:52:13;7.50;99.90
55091;DHT22;40985;53.180;5.800;2022-12-29T14:54:45;7.50;99.90
55091;DHT22;40985;53.180;5.800;2022-12-29T14:57:20;7.50;99.90
55091;DHT22;40985;53.180;5.800;2022-12-29T14:59:47;7.50;99.90
55091;DHT22;40985;53.180;5.800;2022-12-29T15:02:20;7.50;99.90
55091;DHT22;40985;53.180;5.800;2022-12-29T15:04:48;7.60;99.90
55091;DHT22;40985;53.180;5.800;2022-12-29T15:07:14;7.60;99.90
55091;DHT22;40985;53.180;5.800;2022-12-29T15:09:54;7.60;99.90
55091;DHT22;40985;53.180;5.800;2022-12-29T15:12:37;7.70;99.90
55091;DHT22;40985;53.180;5.800;2022-12-29T15:15:37;7.60;99.90
55091;DHT22;40985;53.180;5.800;2022-12-29T15:18:28;7.70;99.90
55091;DHT22;40985;53.180;5.800;2022-12-29T15:20:57;7.60;99.90
55091;DHT22;40985;53.180;5.800;2022-12-29T15:23:23;7.60;99.90
55091;DHT22;40985;53.180;5.800;2022-12-29T15:25:56;7.60;99.90
55091;DHT22;40985;53.180;5.800;2022-12-29T15:28:23;7.60;99.90
55091;DHT22;40985;53.180;5.800;2022-12-29T15:31:02;7.60;99.90
55091;DHT22;40985;53.180;5.800;2022-12-29T15:33:28;7.60;99.90
55091;DHT22;40985;53.180;5.800;2022-12-29T15:35:56;7.60;99.90
55091;DHT22;40985;53.180;5.800;2022-12-29T15:38:28;7.60;99.90
55091;DHT22;40985;53.180;5.800;2022-12-29T15:40:56;7.60;99.90
55091;DHT22;40985;53.180;5.800;2022-12-29T15:43:43;7.60;99.90
55091;DHT22;40985;53.180;5.800;2022-12-29T15:46:15;7.60;99.90
55091;DHT22;40985;53.180;5.800;2022-12-29T15:48:42;7.50;99.90
55091;DHT22;40985;53.180;5.800;2022-12-29T15:51:56;7.40;99.90
55091;DHT22;40985;53.180;5.800;2022-12-29T15:54:20;7.30;99.90
55091;DHT22;40985;53.180;5.800;2022-12-29T15:56:47;7.20;99.90
55091;DHT22;40985;53.180;5.800;2022-12-29T15:59:27;7.20;99.90
55091;DHT22;40985;53.180;5.800;2022-12-29T16:01:55;7.20;99.90
55091;DHT22;40985;53.180;5.800;2022-12-29T16:04:23;7.10;99.90
55091;DHT22;40985;53.180;5.800;2022-12-29T16:07:01;7.10;99.90
55091;DHT22;40985;53.180;5.800;2022-12-29T16:12:07;7.00;99.90
55091;DHT22;40985;53.180;5.800;2022-12-29T16:14:47;7.00;99.90
55091;DHT22;40985;53.180;5.800;2022-12-29T16:17:16;6.90;99.90
55091;DHT22;40985;53.180;5.800;2022-12-29T16:19:50;6.80;99.90
55091;DHT22;40985;53.180;5.800;2022-12-29T16:22:32;6.80;99.90
55091;DHT22;40985;53.180;5.800;2022-12-29T16:25:04;6.70;99.90
55091;DHT22;40985;53.180;5.800;2022-12-29T16:27:40;6.70;99.90
55091;DHT22;40985;53.180;5.800;2022-12-29T16:32:50;6.60;99.90
55091;DHT22;40985;53.180;5.800;2022-12-29T16:35:19;6.50;99.90
55091;DHT22;40985;53.180;5.800;2022-12-29T16:37:45;6.50;99.90
55091;DHT22;40985;53.180;5.800;2022-12-29T16:45:37;6.50;99.90
55091;DHT22;40985;53.180;5.800;2022-12-29T16:50:44;6.60;99.90
55091;DHT22;40985;53.180;5.800;2022-12-29T16:53:40;6.60;99.90
55091;DHT22;40985;53.180;5.800;2022-12-29T16:56:24;6.60;99.90
55091;DHT22;40985;53.180;5.800;2022-12-29T16:59:02;6.60;99.90
55091;DHT22;40985;53.180;5.800;2022-12-29T17:01:29;6.70;99.90
55091;DHT22;40985;53.180;5.800;2022-12-29T17:03:58;6.70;99.90
55091;DHT22;40985;53.180;5.800;2022-12-29T17:06:25;6.80;99.90
55091;DHT22;40985;53.180;5.800;2022-12-29T17:08:51;6.90;99.90
55091;DHT22;40985;53.180;5.800;2022-12-29T17:11:24;6.90;99.90
55091;DHT22;40985;53.180;5.800;2022-12-29T17:19:38;7.00;99.90
55091;DHT22;40985;53.180;5.800;2022-12-29T17:22:19;7.10;99.90
55091;DHT22;40985;53.180;5.800;2022-12-29T17:24:45;7.10;99.90
55091;DHT22;40985;53.180;5.800;2022-12-29T17:27:22;7.10;99.90
55091;DHT22;40985;53.180;5.800;2022-12-29T17:29:49;7.10;99.90
55091;DHT22;40985;53.180;5.800;2022-12-29T17:32:15;7.10;99.90
55091;DHT22;40985;53.180;5.800;2022-12-29T17:34:41;7.10;99.90
55091;DHT22;40985;53.180;5.800;2022-12-29T17:37:28;7.10;99.90
55091;DHT22;40985;53.180;5.800;2022-12-29T17:39:54;7.00;99.90
55091;DHT22;40985;53.180;5.800;2022-12-29T17:42:20;7.00;99.90
55091;DHT22;40985;53.180;5.800;2022-12-29T17:44:45;7.00;99.90
55091;DHT22;40985;53.180;5.800;2022-12-29T17:47:12;7.00;99.90
55091;DHT22;40985;53.180;5.800;2022-12-29T17:49:40;7.00;99.90
55091;DHT22;40985;53.180;5.800;2022-12-29T17:52:11;6.90;99.90
55091;DHT22;40985;53.180;5.800;2022-12-29T17:54:43;7.00;99.90
55091;DHT22;40985;53.180;5.800;2022-12-29T17:57:14;7.00;99.90
55091;DHT22;40985;53.180;5.800;2022-12-29T17:59:40;7.00;99.90
55091;DHT22;40985;53.180;5.800;2022-12-29T18:02:25;7.00;99.90
55091;DHT22;40985;53.180;5.800;2022-12-29T18:04:52;7.00;99.90
55091;DHT22;40985;53.180;5.800;2022-12-29T18:07:18;7.00;99.90
55091;DHT22;40985;53.180;5.800;2022-12-29T18:09:44;7.00;99.90
55091;DHT22;40985;53.180;5.800;2022-12-29T18:12:27;7.00;99.90
55091;DHT22;40985;53.180;5.800;2022-12-29T18:14:54;6.90;99.90
55091;DHT22;40985;53.180;5.800;2022-12-29T18:17:20;6.90;99.90
55091;DHT22;40985;53.180;5.800;2022-12-29T18:19:45;6.90;99.90
55091;DHT22;40985;53.180;5.800;2022-12-29T18:22:11;6.80;99.90
55091;DHT22;40985;53.180;5.800;2022-12-29T18:24:36;6.80;99.90